sensor_id;sensor_type;location;lat;lon;timestamp;pressure;altitude;pressure_sealevel;temperature;humidity
50977;BME280;36992;48.200;12.418;2023-08-20T00:00:32;97096.03;;;27.82;45.10
50977;BME280;36992;48.200;12.418;2023-08-20T00:03:03;97100.75;;;27.81;44.64
50977;BME280;36992;48.200;12.418;2023-08-20T00:05:31;97094.84;;;27.76;44.82
50977;BME280;36992;48.200;12.418;2023-08-20T00:07:58;97095.22;;;27.74;45.25
50977;BME280;36992;48.200;12.418;2023-08-20T00:10:24;97096.81;;;27.71;45.34
50977;BME280;36992;48.200;12.418;2023-08-20T00:12:51;97091.28;;;27.68;45.09
50977;BME280;36992;48.200;12.418;2023-08-20T00:15:17;97095.25;;;27.67;45.10
50977;BME280;36992;48.200;12.418;2023-08-20T00:17:46;97086.94;;;27.67;45.10
50977;BME280;36992;48.200;12.418;2023-08-20T00:20:14;97091.28;;;27.64;45.04
50977;BME280;36992;48.200;12.418;2023-08-20T00:22:42;97099.22;;;27.62;45.14
50977;BME280;36992;48.200;12.418;2023-08-20T00:25:11;97098.41;;;27.62;45.22
50977;BME280;36992;48.200;12.418;2023-08-20T00:27:38;97086.97;;;27.59;45.14
50977;BME280;36992;48.200;12.418;2023-08-20T00:30:06;97099.19;;;27.58;45.10
50977;BME280;36992;48.200;12.418;2023-08-20T00:32:32;97106.31;;;27.56;45.44
50977;BME280;36992;48.200;12.418;2023-08-20T00:35:00;97105.50;;;27.55;45.59
50977;BME280;36992;48.200;12.418;2023-08-20T00:37:28;97096.41;;;27.51;45.41
50977;BME280;36992;48.200;12.418;2023-08-20T00:39:54;97107.09;;;27.49;45.30
50977;BME280;36992;48.200;12.418;2023-08-20T00:42:22;97101.16;;;27.47;45.82
50977;BME280;36992;48.200;12.418;2023-08-20T00:44:50;97095.22;;;27.45;45.65
50977;BME280;36992;48.200;12.418;2023-08-20T00:47:18;97102.75;;;27.44;45.37
50977;BME280;36992;48.200;12.418;2023-08-20T00:49:45;97096.81;;;27.42;45.47
50977;BME280;36992;48.200;12.418;2023-08-20T00:52:14;97103.13;;;27.43;45.37
50977;BME280;36992;48.200;12.418;2023-08-20T00:54:44;97094.44;;;27.41;45.68
50977;BME280;36992;48.200;12.418;2023-08-20T00:57:13;97090.50;;;27.38;45.66
50977;BME280;36992;48.200;12.418;2023-08-20T00:59:39;97094.44;;;27.33;45.66
50977;BME280;36992;48.200;12.418;2023-08-20T01:02:06;97092.84;;;27.32;45.81
50977;BME280;36992;48.200;12.418;2023-08-20T01:04:33;97103.53;;;27.30;45.71
50977;BME280;36992;48.200;12.418;2023-08-20T01:07:04;97109.44;;;27.32;45.44
50977;BME280;36992;48.200;12.418;2023-08-20T01:09:42;97106.69;;;27.32;45.28
50977;BME280;36992;48.200;12.418;2023-08-20T01:12:12;97101.53;;;27.27;45.97
50977;BME280;36992;48.200;12.418;2023-08-20T01:14:40;97106.28;;;27.23;46.36
50977;BME280;36992;48.200;12.418;2023-08-20T01:17:06;97100.75;;;27.19;46.12
50977;BME280;36992;48.200;12.418;2023-08-20T01:19:33;97103.09;;;27.17;46.12
50977;BME280;36992;48.200;12.418;2023-08-20T01:22:14;97097.56;;;27.21;45.28
50977;BME280;36992;48.200;12.418;2023-08-20T01:24:48;97104.72;;;27.18;46.11
50977;BME280;36992;48.200;12.418;2023-08-20T01:27:31;97101.53;;;27.20;45.61
50977;BME280;36992;48.200;12.418;2023-08-20T01:30:07;97098.00;;;27.16;46.20
50977;BME280;36992;48.200;12.418;2023-08-20T01:32:34;97103.91;;;27.11;46.45
50977;BME280;36992;48.200;12.418;2023-08-20T01:35:02;97101.53;;;27.09;46.04
50977;BME280;36992;48.200;12.418;2023-08-20T01:37:28;97101.53;;;27.09;46.30
50977;BME280;36992;48.200;12.418;2023-08-20T01:39:55;97114.97;;;27.07;46.36
50977;BME280;36992;48.200;12.418;2023-08-20T01:42:21;97108.63;;;27.06;46.61
50977;BME280;36992;48.200;12.418;2023-08-20T01:44:48;97102.72;;;27.04;46.65
50977;BME280;36992;48.200;12.418;2023-08-20T01:47:15;97108.63;;;27.06;46.53
50977;BME280;36992;48.200;12.418;2023-08-20T01:49:42;97111.00;;;27.04;46.35
50977;BME280;36992;48.200;12.418;2023-08-20T01:52:08;97109.44;;;27.03;46.36
50977;BME280;36992;48.200;12.418;2023-08-20T01:54:35;97107.81;;;27.02;46.62
50977;BME280;36992;48.200;12.418;2023-08-20T01:57:01;97101.91;;;27.00;46.59
50977;BME280;36992;48.200;12.418;2023-08-20T01:59:28;97099.16;;;27.00;46.36
50977;BME280;36992;48.200;12.418;2023-08-20T02:01:54;97098.75;;;26.98;46.67
50977;BME280;36992;48.200;12.418;2023-08-20T02:04:22;97098.75;;;26.98;46.73
50977;BME280;36992;48.200;12.418;2023-08-20T02:06:49;97100.72;;;26.94;46.35
50977;BME280;36992;48.200;12.418;2023-08-20T02:09:15;97103.09;;;26.92;46.65
50977;BME280;36992;48.200;12.418;2023-08-20T02:11:44;97104.28;;;26.91;46.78
50977;BME280;36992;48.200;12.418;2023-08-20T02:14:11;97101.47;;;26.87;46.95
50977;BME280;36992;48.200;12.418;2023-08-20T02:16:37;97100.28;;;26.85;46.68
50977;BME280;36992;48.200;12.418;2023-08-20T02:19:04;97108.16;;;26.83;46.75
50977;BME280;36992;48.200;12.418;2023-08-20T02:21:33;97101.84;;;26.82;46.54
50977;BME280;36992;48.200;12.418;2023-08-20T02:24:00;97109.72;;;26.76;46.53
50977;BME280;36992;48.200;12.418;2023-08-20T02:26:26;97103.81;;;26.74;46.93
50977;BME280;36992;48.200;12.418;2023-08-20T02:28:53;97097.88;;;26.72;46.79
50977;BME280;36992;48.200;12.418;2023-08-20T02:31:19;97103.78;;;26.71;46.71
50977;BME280;36992;48.200;12.418;2023-08-20T02:33:46;97109.69;;;26.69;47.28
50977;BME280;36992;48.200;12.418;2023-08-20T02:36:12;97109.31;;;26.67;47.05
50977;BME280;36992;48.200;12.418;2023-08-20T02:38:40;97113.25;;;26.66;46.98
50977;BME280;36992;48.200;12.418;2023-08-20T02:41:07;97114.03;;;26.63;47.13
50977;BME280;36992;48.200;12.418;2023-08-20T02:43:33;97115.22;;;26.62;46.87
50977;BME280;36992;48.200;12.418;2023-08-20T02:46:00;97115.59;;;26.60;46.98
50977;BME280;36992;48.200;12.418;2023-08-20T02:48:26;97117.16;;;26.58;47.14
50977;BME280;36992;48.200;12.418;2023-08-20T02:50:54;97112.03;;;26.56;47.41
50977;BME280;36992;48.200;12.418;2023-08-20T02:53:21;97113.19;;;26.55;47.46
50977;BME280;36992;48.200;12.418;2023-08-20T02:55:48;97117.94;;;26.55;47.26
50977;BME280;36992;48.200;12.418;2023-08-20T02:58:15;97115.19;;;26.51;47.26
50977;BME280;36992;48.200;12.418;2023-08-20T03:00:42;97113.97;;;26.48;47.78
50977;BME280;36992;48.200;12.418;2023-08-20T03:03:10;97117.13;;;26.47;47.55
50977;BME280;36992;48.200;12.418;2023-08-20T03:05:36;97112.38;;;26.44;47.90
50977;BME280;36992;48.200;12.418;2023-08-20T03:08:04;97113.97;;;26.41;47.40
50977;BME280;36992;48.200;12.418;2023-08-20T03:10:31;97122.63;;;26.39;47.73
50977;BME280;36992;48.200;12.418;2023-08-20T03:12:59;97127.34;;;26.39;47.68
50977;BME280;36992;48.200;12.418;2023-08-20T03:15:26;97126.56;;;26.35;47.83
50977;BME280;36992;48.200;12.418;2023-08-20T03:17:52;97128.88;;;26.33;47.97
50977;BME280;36992;48.200;12.418;2023-08-20T03:20:19;97124.94;;;26.30;47.80
50977;BME280;36992;48.200;12.418;2023-08-20T03:22:45;97129.69;;;26.30;48.06
50977;BME280;36992;48.200;12.418;2023-08-20T03:25:12;97126.53;;;26.28;48.04
50977;BME280;36992;48.200;12.418;2023-08-20T03:27:38;97127.28;;;26.24;47.97
50977;BME280;36992;48.200;12.418;2023-08-20T03:30:07;97128.84;;;26.25;47.60
50977;BME280;36992;48.200;12.418;2023-08-20T03:32:33;97132.75;;;26.21;48.20
50977;BME280;36992;48.200;12.418;2023-08-20T03:35:00;97141.03;;;26.17;48.23
50977;BME280;36992;48.200;12.418;2023-08-20T03:37:27;97128.41;;;26.16;48.20
50977;BME280;36992;48.200;12.418;2023-08-20T03:39:53;97141.00;;;26.13;48.12
50977;BME280;36992;48.200;12.418;2023-08-20T03:42:20;97139.81;;;26.11;48.12
50977;BME280;36992;48.200;12.418;2023-08-20T03:44:46;97147.69;;;26.09;48.12
50977;BME280;36992;48.200;12.418;2023-08-20T03:47:14;97136.59;;;26.05;47.90
50977;BME280;36992;48.200;12.418;2023-08-20T03:49:45;97138.94;;;25.99;48.34
50977;BME280;36992;48.200;12.418;2023-08-20T03:52:12;97136.56;;;25.98;48.12
50977;BME280;36992;48.200;12.418;2023-08-20T03:54:38;97142.06;;;25.94;48.19
50977;BME280;36992;48.200;12.418;2023-08-20T03:57:05;97140.47;;;25.93;48.39
50977;BME280;36992;48.200;12.418;2023-08-20T03:59:31;97144.41;;;25.92;48.13
50977;BME280;36992;48.200;12.418;2023-08-20T04:01:58;97143.63;;;25.92;48.19
50977;BME280;36992;48.200;12.418;2023-08-20T04:04:26;97141.25;;;25.90;48.18
50977;BME280;36992;48.200;12.418;2023-08-20T04:06:53;97139.63;;;25.85;48.45
50977;BME280;36992;48.200;12.418;2023-08-20T04:09:20;97147.13;;;25.85;48.38
50977;BME280;36992;48.200;12.418;2023-08-20T04:11:46;97147.50;;;25.83;48.47
50977;BME280;36992;48.200;12.418;2023-08-20T04:14:13;97142.38;;;25.82;48.43
50977;BME280;36992;48.200;12.418;2023-08-20T04:16:39;97144.34;;;25.81;48.52
50977;BME280;36992;48.200;12.418;2023-08-20T04:19:06;97151.81;;;25.81;48.55
50977;BME280;36992;48.200;12.418;2023-08-20T04:21:34;97156.16;;;25.82;48.26
50977;BME280;36992;48.200;12.418;2023-08-20T04:24:00;97151.03;;;25.80;48.52
50977;BME280;36992;48.200;12.418;2023-08-20T04:26:27;97157.72;;;25.79;48.34
50977;BME280;36992;48.200;12.418;2023-08-20T04:28:53;97162.47;;;25.79;48.45
50977;BME280;36992;48.200;12.418;2023-08-20T04:31:20;97149.84;;;25.78;48.22
50977;BME280;36992;48.200;12.418;2023-08-20T04:33:46;97156.50;;;25.77;48.40
50977;BME280;36992;48.200;12.418;2023-08-20T04:36:12;97160.44;;;25.76;48.32
50977;BME280;36992;48.200;12.418;2023-08-20T04:38:40;97154.94;;;25.76;48.23
50977;BME280;36992;48.200;12.418;2023-08-20T04:41:07;97159.25;;;25.73;48.52
50977;BME280;36992;48.200;12.418;2023-08-20T04:43:33;97168.28;;;25.70;48.63
50977;BME280;36992;48.200;12.418;2023-08-20T04:46:00;97171.81;;;25.67;48.61
50977;BME280;36992;48.200;12.418;2023-08-20T04:48:26;97172.97;;;25.66;48.95
50977;BME280;36992;48.200;12.418;2023-08-20T04:50:53;97173.75;;;25.63;48.99
50977;BME280;36992;48.200;12.418;2023-08-20T04:53:19;97182.41;;;25.61;48.84
50977;BME280;36992;48.200;12.418;2023-08-20T04:55:47;97182.41;;;25.61;48.85
50977;BME280;36992;48.200;12.418;2023-08-20T04:58:13;97185.91;;;25.58;49.26
50977;BME280;36992;48.200;12.418;2023-08-20T05:00:40;97178.03;;;25.56;48.96
50977;BME280;36992;48.200;12.418;2023-08-20T05:03:06;97186.31;;;25.56;49.26
50977;BME280;36992;48.200;12.418;2023-08-20T05:05:33;97182.75;;;25.56;49.20
50977;BME280;36992;48.200;12.418;2023-08-20T05:07:59;97188.28;;;25.56;49.08
50977;BME280;36992;48.200;12.418;2023-08-20T05:10:26;97189.84;;;25.57;49.02
50977;BME280;36992;48.200;12.418;2023-08-20T05:12:54;97189.47;;;25.58;48.93
50977;BME280;36992;48.200;12.418;2023-08-20T05:15:20;97189.84;;;25.57;48.72
50977;BME280;36992;48.200;12.418;2023-08-20T05:17:47;97188.28;;;25.56;48.82
50977;BME280;36992;48.200;12.418;2023-08-20T05:20:14;97185.09;;;25.54;48.92
50977;BME280;36992;48.200;12.418;2023-08-20T05:22:41;97185.44;;;25.52;49.40
50977;BME280;36992;48.200;12.418;2023-08-20T05:25:07;97186.28;;;25.53;48.93
50977;BME280;36992;48.200;12.418;2023-08-20T05:27:34;97189.03;;;25.53;49.27
50977;BME280;36992;48.200;12.418;2023-08-20T05:30:02;97185.50;;;25.56;48.96
50977;BME280;36992;48.200;12.418;2023-08-20T05:32:29;97186.69;;;25.55;49.36
50977;BME280;36992;48.200;12.418;2023-08-20T05:34:56;97186.31;;;25.56;49.05
50977;BME280;36992;48.200;12.418;2023-08-20T05:37:22;97183.56;;;25.56;49.35
50977;BME280;36992;48.200;12.418;2023-08-20T05:39:49;97178.44;;;25.58;49.25
50977;BME280;36992;48.200;12.418;2023-08-20T05:42:15;97181.19;;;25.58;48.99
50977;BME280;36992;48.200;12.418;2023-08-20T05:44:42;97189.88;;;25.61;48.98
50977;BME280;36992;48.200;12.418;2023-08-20T05:47:10;97186.75;;;25.62;49.27
50977;BME280;36992;48.200;12.418;2023-08-20T05:49:36;97189.50;;;25.62;49.07
50977;BME280;36992;48.200;12.418;2023-08-20T05:52:03;97183.63;;;25.64;49.17
50977;BME280;36992;48.200;12.418;2023-08-20T05:54:30;97185.56;;;25.63;48.82
50977;BME280;36992;48.200;12.418;2023-08-20T05:56:57;97184.81;;;25.66;49.09
50977;BME280;36992;48.200;12.418;2023-08-20T05:59:23;97193.09;;;25.66;48.57
50977;BME280;36992;48.200;12.418;2023-08-20T06:01:53;97189.19;;;25.71;48.26
50977;BME280;36992;48.200;12.418;2023-08-20T06:04:21;97189.94;;;25.68;47.13
50977;BME280;36992;48.200;12.418;2023-08-20T06:06:48;97187.97;;;25.65;47.36
50977;BME280;36992;48.200;12.418;2023-08-20T06:09:14;97191.53;;;25.65;47.04
50977;BME280;36992;48.200;12.418;2023-08-20T06:11:41;97186.00;;;25.65;45.41
50977;BME280;36992;48.200;12.418;2023-08-20T06:14:07;97192.66;;;25.64;45.95
50977;BME280;36992;48.200;12.418;2023-08-20T06:16:34;97193.84;;;25.63;46.91
50977;BME280;36992;48.200;12.418;2023-08-20T06:19:00;97203.69;;;25.64;46.50
50977;BME280;36992;48.200;12.418;2023-08-20T06:21:28;97199.78;;;25.65;46.46
50977;BME280;36992;48.200;12.418;2023-08-20T06:23:55;97207.25;;;25.65;46.77
50977;BME280;36992;48.200;12.418;2023-08-20T06:26:22;97199.78;;;25.65;47.41
50977;BME280;36992;48.200;12.418;2023-08-20T06:28:48;97199.78;;;25.65;47.22
50977;BME280;36992;48.200;12.418;2023-08-20T06:31:15;97211.22;;;25.67;47.09
50977;BME280;36992;48.200;12.418;2023-08-20T06:33:41;97208.88;;;25.69;47.65
50977;BME280;36992;48.200;12.418;2023-08-20T06:36:07;97210.44;;;25.70;46.80
50977;BME280;36992;48.200;12.418;2023-08-20T06:38:35;97209.72;;;25.73;47.14
50977;BME280;36992;48.200;12.418;2023-08-20T06:41:02;97208.53;;;25.75;46.68
50977;BME280;36992;48.200;12.418;2023-08-20T06:43:28;97208.16;;;25.76;46.77
50977;BME280;36992;48.200;12.418;2023-08-20T06:45:55;97216.84;;;25.78;46.97
50977;BME280;36992;48.200;12.418;2023-08-20T06:48:21;97212.13;;;25.79;46.90
50977;BME280;36992;48.200;12.418;2023-08-20T06:50:50;97212.53;;;25.81;46.05
50977;BME280;36992;48.200;12.418;2023-08-20T06:53:16;97211.72;;;25.80;45.73
50977;BME280;36992;48.200;12.418;2023-08-20T06:55:44;97215.69;;;25.83;45.79
50977;BME280;36992;48.200;12.418;2023-08-20T06:58:11;97209.75;;;25.81;46.32
50977;BME280;36992;48.200;12.418;2023-08-20T07:00:37;97223.16;;;25.79;45.87
50977;BME280;36992;48.200;12.418;2023-08-20T07:03:04;97215.66;;;25.79;46.21
50977;BME280;36992;48.200;12.418;2023-08-20T07:05:30;97218.03;;;25.81;46.48
50977;BME280;36992;48.200;12.418;2023-08-20T07:07:57;97221.59;;;25.81;46.23
50977;BME280;36992;48.200;12.418;2023-08-20T07:10:23;97217.66;;;25.82;46.41
50977;BME280;36992;48.200;12.418;2023-08-20T07:12:51;97223.59;;;25.88;46.20
50977;BME280;36992;48.200;12.418;2023-08-20T07:15:18;97220.06;;;25.88;46.36
50977;BME280;36992;48.200;12.418;2023-08-20T07:17:44;97232.72;;;25.92;46.32
50977;BME280;36992;48.200;12.418;2023-08-20T07:20:11;97235.50;;;25.96;47.16
50977;BME280;36992;48.200;12.418;2023-08-20T07:22:37;97232.78;;;25.99;46.91
50977;BME280;36992;48.200;12.418;2023-08-20T07:25:04;97230.44;;;26.05;47.48
50977;BME280;36992;48.200;12.418;2023-08-20T07:27:30;97238.38;;;26.10;47.65
50977;BME280;36992;48.200;12.418;2023-08-20T07:29:58;97229.72;;;26.16;46.59
50977;BME280;36992;48.200;12.418;2023-08-20T07:32:25;97236.84;;;26.20;46.77
50977;BME280;36992;48.200;12.418;2023-08-20T07:34:51;97237.72;;;26.24;46.24
50977;BME280;36992;48.200;12.418;2023-08-20T07:37:18;97234.59;;;26.30;46.22
50977;BME280;36992;48.200;12.418;2023-08-20T07:39:44;97234.63;;;26.33;45.71
50977;BME280;36992;48.200;12.418;2023-08-20T07:42:11;97229.13;;;26.37;45.75
50977;BME280;36992;48.200;12.418;2023-08-20T07:44:37;97232.69;;;26.41;45.79
50977;BME280;36992;48.200;12.418;2023-08-20T07:47:05;97227.59;;;26.47;46.27
50977;BME280;36992;48.200;12.418;2023-08-20T07:49:32;97233.13;;;26.50;46.20
50977;BME280;36992;48.200;12.418;2023-08-20T07:51:58;97235.53;;;26.56;46.50
50977;BME280;36992;48.200;12.418;2023-08-20T07:54:25;97236.34;;;26.60;45.82
50977;BME280;36992;48.200;12.418;2023-08-20T07:56:52;97235.97;;;26.65;45.79
50977;BME280;36992;48.200;12.418;2023-08-20T07:59:19;97245.47;;;26.71;45.90
50977;BME280;36992;48.200;12.418;2023-08-20T08:01:45;97243.91;;;26.77;46.54
50977;BME280;36992;48.200;12.418;2023-08-20T08:04:13;97242.78;;;26.86;45.59
50977;BME280;36992;48.200;12.418;2023-08-20T08:06:39;97245.97;;;26.88;45.66
50977;BME280;36992;48.200;12.418;2023-08-20T08:09:20;97246.81;;;26.99;46.00
50977;BME280;36992;48.200;12.418;2023-08-20T08:11:47;97244.81;;;26.96;46.13
50977;BME280;36992;48.200;12.418;2023-08-20T08:14:13;97242.88;;;27.00;46.31
50977;BME280;36992;48.200;12.418;2023-08-20T08:16:40;97250.00;;;27.05;46.13
50977;BME280;36992;48.200;12.418;2023-08-20T08:19:06;97246.09;;;27.10;46.51
50977;BME280;36992;48.200;12.418;2023-08-20T08:21:34;97246.50;;;27.15;46.26
50977;BME280;36992;48.200;12.418;2023-08-20T08:24:01;97247.31;;;27.19;46.23
50977;BME280;36992;48.200;12.418;2023-08-20T08:26:27;97248.50;;;27.26;45.93
50977;BME280;36992;48.200;12.418;2023-08-20T08:28:54;97253.25;;;27.32;46.42
50977;BME280;36992;48.200;12.418;2023-08-20T08:31:21;97255.63;;;27.38;45.38
50977;BME280;36992;48.200;12.418;2023-08-20T08:33:48;97256.06;;;27.43;45.47
50977;BME280;36992;48.200;12.418;2023-08-20T08:36:15;97265.13;;;27.47;45.14
50977;BME280;36992;48.200;12.418;2023-08-20T08:38:43;97269.09;;;27.54;45.23
50977;BME280;36992;48.200;12.418;2023-08-20T08:41:11;97263.59;;;27.57;45.56
50977;BME280;36992;48.200;12.418;2023-08-20T08:43:39;97266.38;;;27.61;45.44
50977;BME280;36992;48.200;12.418;2023-08-20T08:46:07;97264.81;;;27.67;44.47
50977;BME280;36992;48.200;12.418;2023-08-20T08:48:34;97269.56;;;27.74;44.20
50977;BME280;36992;48.200;12.418;2023-08-20T08:51:02;97267.63;;;27.78;44.67
50977;BME280;36992;48.200;12.418;2023-08-20T08:53:30;97271.16;;;27.86;44.97
50977;BME280;36992;48.200;12.418;2023-08-20T08:55:58;97270.00;;;27.91;44.88
50977;BME280;36992;48.200;12.418;2023-08-20T08:58:25;97264.03;;;27.96;43.31
50977;BME280;36992;48.200;12.418;2023-08-20T09:00:52;97273.16;;;28.00;42.91
50977;BME280;36992;48.200;12.418;2023-08-20T09:03:19;97266.03;;;28.06;43.15
50977;BME280;36992;48.200;12.418;2023-08-20T09:05:46;97268.78;;;28.13;44.04
50977;BME280;36992;48.200;12.418;2023-08-20T09:08:19;97266.00;;;28.21;44.19
50977;BME280;36992;48.200;12.418;2023-08-20T09:10:46;97265.25;;;28.24;43.73
50977;BME280;36992;48.200;12.418;2023-08-20T09:13:14;97269.22;;;28.30;44.34
50977;BME280;36992;48.200;12.418;2023-08-20T09:15:40;97266.06;;;28.35;44.06
50977;BME280;36992;48.200;12.418;2023-08-20T09:18:09;97267.59;;;28.44;43.76
50977;BME280;36992;48.200;12.418;2023-08-20T09:20:36;97272.75;;;28.49;43.66
50977;BME280;36992;48.200;12.418;2023-08-20T09:23:03;97273.13;;;28.54;43.67
50977;BME280;36992;48.200;12.418;2023-08-20T09:25:30;97258.09;;;28.59;43.83
50977;BME280;36992;48.200;12.418;2023-08-20T09:27:56;97253.31;;;28.63;43.59
50977;BME280;36992;48.200;12.418;2023-08-20T09:30:24;97262.41;;;28.71;43.56
50977;BME280;36992;48.200;12.418;2023-08-20T09:33:04;97265.13;;;28.82;44.01
50977;BME280;36992;48.200;12.418;2023-08-20T09:35:30;97269.09;;;28.81;43.51
50977;BME280;36992;48.200;12.418;2023-08-20T09:38:01;97268.72;;;28.90;43.35
50977;BME280;36992;48.200;12.418;2023-08-20T09:40:28;97273.06;;;28.91;42.64
50977;BME280;36992;48.200;12.418;2023-08-20T09:42:56;97267.09;;;28.96;42.73
50977;BME280;36992;48.200;12.418;2023-08-20T09:45:25;97266.31;;;29.03;42.33
50977;BME280;36992;48.200;12.418;2023-08-20T09:47:55;97260.31;;;29.08;42.18
50977;BME280;36992;48.200;12.418;2023-08-20T09:50:26;97268.19;;;29.17;42.44
50977;BME280;36992;48.200;12.418;2023-08-20T09:52:58;97262.63;;;29.24;42.32
50977;BME280;36992;48.200;12.418;2023-08-20T09:55:30;97256.25;;;29.31;42.53
50977;BME280;36992;48.200;12.418;2023-08-20T09:57:59;97260.97;;;29.34;41.75
50977;BME280;36992;48.200;12.418;2023-08-20T10:00:28;97259.34;;;29.40;41.48
50977;BME280;36992;48.200;12.418;2023-08-20T10:02:56;97262.91;;;29.44;41.09
50977;BME280;36992;48.200;12.418;2023-08-20T10:05:23;97261.72;;;29.49;41.31
50977;BME280;36992;48.200;12.418;2023-08-20T10:07:49;97254.97;;;29.54;40.26
50977;BME280;36992;48.200;12.418;2023-08-20T10:10:17;97256.13;;;29.60;40.07
50977;BME280;36992;48.200;12.418;2023-08-20T10:12:44;97254.50;;;29.66;40.62
50977;BME280;36992;48.200;12.418;2023-08-20T10:15:12;97248.09;;;29.73;40.25
50977;BME280;36992;48.200;12.418;2023-08-20T10:17:42;97243.66;;;29.83;39.91
50977;BME280;36992;48.200;12.418;2023-08-20T10:20:09;97246.41;;;29.86;39.29
50977;BME280;36992;48.200;12.418;2023-08-20T10:22:36;97242.78;;;29.93;38.94
50977;BME280;36992;48.200;12.418;2023-08-20T10:25:05;97235.16;;;30.05;39.81
50977;BME280;36992;48.200;12.418;2023-08-20T10:27:34;97246.22;;;30.12;38.76
50977;BME280;36992;48.200;12.418;2023-08-20T10:30:02;97246.97;;;30.20;38.51
50977;BME280;36992;48.200;12.418;2023-08-20T10:32:48;97240.84;;;30.36;39.39
50977;BME280;36992;48.200;12.418;2023-08-20T10:35:17;97238.03;;;30.39;38.13
50977;BME280;36992;48.200;12.418;2023-08-20T10:38:01;97246.63;;;30.52;39.70
50977;BME280;36992;48.200;12.418;2023-08-20T10:40:47;97249.72;;;30.62;39.33
50977;BME280;36992;48.200;12.418;2023-08-20T10:43:26;97244.91;;;30.66;39.09
50977;BME280;36992;48.200;12.418;2023-08-20T10:46:02;97247.66;;;30.73;38.92
50977;BME280;36992;48.200;12.418;2023-08-20T10:48:31;97247.97;;;30.79;38.55
50977;BME280;36992;48.200;12.418;2023-08-20T10:51:06;97241.09;;;30.87;38.65
50977;BME280;36992;48.200;12.418;2023-08-20T10:53:32;97242.28;;;30.90;37.99
50977;BME280;36992;48.200;12.418;2023-08-20T10:56:07;97244.50;;;31.02;38.86
50977;BME280;36992;48.200;12.418;2023-08-20T10:58:34;97236.56;;;31.04;38.00
50977;BME280;36992;48.200;12.418;2023-08-20T11:01:20;97237.16;;;31.19;38.78
50977;BME280;36992;48.200;12.418;2023-08-20T11:03:49;97241.09;;;31.22;38.29
50977;BME280;36992;48.200;12.418;2023-08-20T11:06:16;97238.25;;;31.29;37.88
50977;BME280;36992;48.200;12.418;2023-08-20T11:08:42;97238.13;;;31.36;37.15
50977;BME280;36992;48.200;12.418;2023-08-20T11:11:10;97240.81;;;31.44;37.26
50977;BME280;36992;48.200;12.418;2023-08-20T11:13:37;97228.00;;;31.50;36.83
50977;BME280;36992;48.200;12.418;2023-08-20T11:16:04;97239.81;;;31.58;36.85
50977;BME280;36992;48.200;12.418;2023-08-20T11:18:32;97240.50;;;31.66;36.12
50977;BME280;36992;48.200;12.418;2023-08-20T11:21:00;97237.97;;;31.75;36.41
50977;BME280;36992;48.200;12.418;2023-08-20T11:23:28;97240.28;;;31.80;35.32
50977;BME280;36992;48.200;12.418;2023-08-20T11:25:55;97244.97;;;31.87;36.30
50977;BME280;36992;48.200;12.418;2023-08-20T11:28:22;97238.50;;;31.94;35.79
50977;BME280;36992;48.200;12.418;2023-08-20T11:30:49;97237.22;;;31.98;36.10
50977;BME280;36992;48.200;12.418;2023-08-20T11:33:16;97247.47;;;32.05;34.84
50977;BME280;36992;48.200;12.418;2023-08-20T11:35:43;97245.78;;;32.11;34.52
50977;BME280;36992;48.200;12.418;2023-08-20T11:38:12;97245.22;;;32.20;34.03
50977;BME280;36992;48.200;12.418;2023-08-20T11:40:39;97250.72;;;32.24;34.93
50977;BME280;36992;48.200;12.418;2023-08-20T11:43:05;97247.47;;;32.29;34.12
50977;BME280;36992;48.200;12.418;2023-08-20T11:45:33;97250.53;;;32.35;33.82
50977;BME280;36992;48.200;12.418;2023-08-20T11:47:59;97236.91;;;32.40;34.33
50977;BME280;36992;48.200;12.418;2023-08-20T11:50:26;97246.34;;;32.47;34.61
50977;BME280;36992;48.200;12.418;2023-08-20T11:52:53;97241.44;;;32.54;34.86
50977;BME280;36992;48.200;12.418;2023-08-20T11:55:24;97229.72;;;32.63;35.74
50977;BME280;36992;48.200;12.418;2023-08-20T11:57:51;97231.66;;;32.66;35.62
50977;BME280;36992;48.200;12.418;2023-08-20T12:00:24;97233.03;;;32.78;34.92
50977;BME280;36992;48.200;12.418;2023-08-20T12:02:52;97244.09;;;32.82;34.57
50977;BME280;36992;48.200;12.418;2023-08-20T12:05:19;97235.22;;;32.87;35.58
50977;BME280;36992;48.200;12.418;2023-08-20T12:07:54;97237.06;;;32.97;34.71
50977;BME280;36992;48.200;12.418;2023-08-20T12:10:23;97248.63;;;32.96;32.62
50977;BME280;36992;48.200;12.418;2023-08-20T12:12:51;97231.81;;;33.00;33.03
50977;BME280;36992;48.200;12.418;2023-08-20T12:15:18;97235.34;;;33.04;33.12
50977;BME280;36992;48.200;12.418;2023-08-20T12:17:55;97233.53;;;33.14;33.69
50977;BME280;36992;48.200;12.418;2023-08-20T12:20:22;97233.06;;;33.15;30.66
50977;BME280;36992;48.200;12.418;2023-08-20T12:22:48;97232.22;;;33.18;31.09
50977;BME280;36992;48.200;12.418;2023-08-20T12:25:15;97222.97;;;33.21;30.70
50977;BME280;36992;48.200;12.418;2023-08-20T12:27:43;97227.19;;;33.30;32.19
50977;BME280;36992;48.200;12.418;2023-08-20T12:30:11;97223.91;;;33.35;31.67
50977;BME280;36992;48.200;12.418;2023-08-20T12:32:37;97219.38;;;33.41;30.48
50977;BME280;36992;48.200;12.418;2023-08-20T12:35:05;97220.44;;;33.47;32.26
50977;BME280;36992;48.200;12.418;2023-08-20T12:37:31;97214.78;;;33.51;30.94
50977;BME280;36992;48.200;12.418;2023-08-20T12:39:58;97213.47;;;33.56;30.99
50977;BME280;36992;48.200;12.418;2023-08-20T12:42:25;97211.41;;;33.60;31.69
50977;BME280;36992;48.200;12.418;2023-08-20T12:44:53;97212.06;;;33.64;31.77
50977;BME280;36992;48.200;12.418;2023-08-20T12:47:19;97205.63;;;33.67;31.07
50977;BME280;36992;48.200;12.418;2023-08-20T12:49:46;97202.31;;;33.72;30.29
50977;BME280;36992;48.200;12.418;2023-08-20T12:52:12;97203.00;;;33.76;31.47